createdAt,value
2019-03-21T00:01:37.839Z,83.58
2019-03-21T00:04:12.290Z,83.87
2019-03-21T00:06:43.632Z,84.44
2019-03-21T00:09:17.096Z,84.23
2019-03-21T00:12:08.464Z,84.25
2019-03-21T00:15:23.401Z,84.48
2019-03-21T00:18:18.026Z,85.24
2019-03-21T00:20:49.430Z,84.05
2019-03-21T00:23:20.795Z,84.34
2019-03-21T00:25:52.547Z,84.51
2019-03-21T00:28:24.058Z,84.42
2019-03-21T00:30:55.481Z,84.66
2019-03-21T00:33:26.997Z,84.95
2019-03-21T00:35:58.577Z,84.66
2019-03-21T00:38:29.968Z,84.25
2019-03-21T00:41:01.392Z,84.80
2019-03-21T00:43:33.184Z,85.34
2019-03-21T00:46:04.527Z,85.36
2019-03-21T00:48:35.879Z,85.73
2019-03-21T00:51:07.320Z,85.16
2019-03-21T00:53:39.234Z,85.44
2019-03-21T00:56:10.606Z,84.76
2019-03-21T00:58:41.951Z,84.33
2019-03-21T01:01:13.763Z,84.92
2019-03-21T01:03:45.427Z,84.72
2019-03-21T01:06:16.750Z,84.94
2019-03-21T01:08:48.588Z,84.11
2019-03-21T01:11:19.888Z,84.15
2019-03-21T01:13:51.240Z,83.86
2019-03-21T01:16:22.582Z,84.16
2019-03-21T01:18:53.993Z,84.57
2019-03-21T01:21:25.279Z,84.96
2019-03-21T01:23:57.131Z,84.41
2019-03-21T01:26:28.437Z,84.93
2019-03-21T01:28:59.798Z,84.97
2019-03-21T01:31:31.102Z,84.48
2019-03-21T01:34:02.442Z,84.48
2019-03-21T01:36:33.827Z,84.27
2019-03-21T01:39:06.653Z,85.21
2019-03-21T01:41:38.010Z,85.28
2019-03-21T01:44:09.334Z,84.93
2019-03-21T01:46:40.770Z,85.54
2019-03-21T01:49:13.646Z,85.04
2019-03-21T01:51:52.192Z,84.89
2019-03-21T01:54:23.593Z,84.99
2019-03-21T01:56:55.350Z,84.76
2019-03-21T01:59:26.711Z,85.05
2019-03-21T02:01:58.073Z,85.49
2019-03-21T02:04:29.427Z,85.87
2019-03-21T02:07:01.069Z,85.38
2019-03-21T02:09:34.003Z,85.05
2019-03-21T02:12:05.571Z,85.10
2019-03-21T02:14:36.901Z,85.36
2019-03-21T02:17:08.294Z,86.34
2019-03-21T02:19:42.278Z,86.22
2019-03-21T02:22:13.745Z,85.75
2019-03-21T02:24:45.586Z,86.30
2019-03-21T02:27:16.895Z,85.99
2019-03-21T02:29:49.784Z,86.39
2019-03-21T02:32:21.590Z,85.85
2019-03-21T02:34:52.940Z,86.58
2019-03-21T02:37:24.632Z,86.44
2019-03-21T02:39:59.872Z,85.97
2019-03-21T02:42:29.251Z,86.31
2019-03-21T02:45:08.370Z,87.32
2019-03-21T02:47:34.362Z,86.93
2019-03-21T02:50:06.343Z,86.89
2019-03-21T02:52:37.726Z,87.17
2019-03-21T02:55:09.739Z,86.84
2019-03-21T02:57:41.092Z,87.29
2019-03-21T03:00:16.063Z,86.46
2019-03-21T03:02:53.508Z,86.49
2019-03-21T03:05:27.506Z,87.00
2019-03-21T03:08:00.516Z,86.40
2019-03-21T03:10:43.823Z,86.54
2019-03-21T03:13:15.174Z,86.80
2019-03-21T03:15:48.041Z,86.70
2019-03-21T03:18:19.814Z,86.63
2019-03-21T03:20:51.239Z,86.74
2019-03-21T03:23:22.754Z,86.65
2019-03-21T03:25:55.686Z,86.39
2019-03-21T03:28:27.582Z,86.66
2019-03-21T03:30:59.185Z,86.73
2019-03-21T03:33:30.617Z,86.84
2019-03-21T03:36:01.978Z,87.03
2019-03-21T03:38:36.572Z,87.40
2019-03-21T03:41:08.193Z,87.25
2019-03-21T03:43:40.019Z,87.59
2019-03-21T03:46:11.651Z,87.25
2019-03-21T03:48:43.049Z,87.39
2019-03-21T03:51:14.365Z,86.98
2019-03-21T03:53:46.171Z,86.95
2019-03-21T03:56:17.529Z,87.48
2019-03-21T03:58:52.500Z,87.43
2019-03-21T04:01:23.824Z,87.02
2019-03-21T04:03:56.091Z,87.55
2019-03-21T04:06:28.950Z,87.36
2019-03-21T04:09:00.318Z,87.70
2019-03-21T04:11:32.145Z,87.55
2019-03-21T04:14:03.651Z,88.05
2019-03-21T04:16:35.011Z,88.22
2019-03-21T04:19:09.881Z,88.22
2019-03-21T04:21:41.366Z,87.54
2019-03-21T04:24:12.756Z,87.56
2019-03-21T04:26:44.548Z,87.98
2019-03-21T04:29:15.970Z,87.73
2019-03-21T04:31:47.261Z,87.63
2019-03-21T04:34:19.080Z,87.75
2019-03-21T04:36:50.394Z,88.10
2019-03-21T04:39:21.767Z,87.70
2019-03-21T04:41:53.104Z,87.87
2019-03-21T04:44:24.492Z,88.42
2019-03-21T04:46:55.834Z,88.47
2019-03-21T04:49:27.713Z,88.59
2019-03-21T04:52:02.010Z,88.39
2019-03-21T04:54:33.414Z,88.51
2019-03-21T04:57:04.779Z,88.25
2019-03-21T04:59:36.287Z,88.14
2019-03-21T05:02:10.771Z,88.50
2019-03-21T05:04:42.642Z,88.73
2019-03-21T05:07:14.187Z,88.97
2019-03-21T05:09:45.981Z,88.83
2019-03-21T05:12:17.483Z,89.35
2019-03-21T05:14:48.822Z,88.91
2019-03-21T05:17:20.189Z,88.73
2019-03-21T05:19:51.557Z,88.92
2019-03-21T05:22:22.974Z,88.95
2019-03-21T05:24:59.356Z,89.29
2019-03-21T05:28:17.198Z,89.33
2019-03-21T05:31:12.058Z,90.04
2019-03-21T05:33:47.472Z,90.38
2019-03-21T05:36:19.002Z,90.44
2019-03-21T05:38:51.811Z,90.48
2019-03-21T05:41:23.201Z,90.55
2019-03-21T05:44:07.637Z,90.90
2019-03-21T05:46:39.027Z,90.67
2019-03-21T05:49:10.345Z,90.55
2019-03-21T05:51:42.064Z,90.51
2019-03-21T05:54:13.417Z,90.75
2019-03-21T05:56:44.708Z,90.55
2019-03-21T05:59:16.454Z,90.67
2019-03-21T06:01:47.942Z,90.47
2019-03-21T06:04:19.360Z,90.35
2019-03-21T06:07:14.665Z,90.61
2019-03-21T06:09:55.160Z,90.76
2019-03-21T06:12:28.035Z,91.26
2019-03-21T06:15:15.952Z,91.27
2019-03-21T06:18:11.029Z,90.97
2019-03-21T06:20:56.528Z,91.12
2019-03-21T06:23:51.819Z,91.47
2019-03-21T06:26:43.078Z,90.39
2019-03-21T06:29:14.795Z,89.30
2019-03-21T06:31:47.490Z,89.29
2019-03-21T06:34:23.504Z,89.45
2019-03-21T06:36:55.076Z,89.77
2019-03-21T06:39:27.427Z,90.46
2019-03-21T06:41:59.148Z,90.09
2019-03-21T06:44:30.536Z,89.77
2019-03-21T06:47:02.190Z,88.13
2019-03-21T06:49:33.586Z,88.04
2019-03-21T06:52:12.140Z,88.03
2019-03-21T06:54:45.741Z,88.27
2019-03-21T06:57:18.913Z,86.97
2019-03-21T06:59:50.267Z,84.42
2019-03-21T07:02:22.594Z,85.34
2019-03-21T07:04:56.189Z,84.77
2019-03-21T07:07:27.590Z,83.65
2019-03-21T07:09:59.506Z,82.83
2019-03-21T07:12:30.903Z,81.84
2019-03-21T07:15:04.372Z,80.30
2019-03-21T07:17:35.302Z,79.11
2019-03-21T07:20:07.078Z,78.16
2019-03-21T07:22:39.266Z,80.27
2019-03-21T07:25:26.035Z,79.23
2019-03-21T07:27:57.406Z,79.51
2019-03-21T07:30:29.057Z,78.57
2019-03-21T07:33:01.066Z,78.26
2019-03-21T07:35:32.689Z,77.98
2019-03-21T07:38:07.013Z,77.83
2019-03-21T07:40:38.338Z,77.62
2019-03-21T07:43:09.704Z,76.56
2019-03-21T07:45:41.018Z,75.71
2019-03-21T07:48:17.120Z,73.36
2019-03-21T07:50:48.439Z,72.70
2019-03-21T07:53:22.153Z,71.63
2019-03-21T07:56:10.898Z,65.58
2019-03-21T07:58:47.110Z,63.02
2019-03-21T08:01:18.810Z,62.37
2019-03-21T08:03:55.348Z,59.46
2019-03-21T08:06:26.643Z,58.93
2019-03-21T08:08:59.216Z,59.04
2019-03-21T08:11:33.769Z,58.14
2019-03-21T08:14:05.117Z,58.28
2019-03-21T08:16:37.959Z,60.60
2019-03-21T08:19:10.650Z,58.70
2019-03-21T08:21:43.185Z,60.60
2019-03-21T08:24:14.785Z,59.98
2019-03-21T08:26:52.524Z,61.40
2019-03-21T08:29:24.404Z,63.57
2019-03-21T08:31:57.340Z,60.60
2019-03-21T08:34:31.626Z,60.12
2019-03-21T08:37:02.988Z,60.18
2019-03-21T08:39:34.761Z,60.58
2019-03-21T08:42:06.613Z,60.99
2019-03-21T08:44:39.718Z,60.97
2019-03-21T08:47:11.084Z,58.82
2019-03-21T08:49:42.392Z,59.51
2019-03-21T08:52:13.815Z,58.33
2019-03-21T08:54:47.977Z,58.28
2019-03-21T08:58:11.305Z,58.96
2019-03-21T09:01:15.428Z,58.79
2019-03-21T09:03:57.758Z,56.32
2019-03-21T09:06:29.476Z,54.61
2019-03-21T09:09:02.117Z,54.09
2019-03-21T09:11:34.047Z,55.41
2019-03-21T09:14:05.659Z,54.87
2019-03-21T09:16:37.455Z,54.78
2019-03-21T09:19:13.993Z,53.57
2019-03-21T09:21:48.062Z,51.40
2019-03-21T09:24:40.581Z,51.57
2019-03-21T09:27:14.462Z,52.03
2019-03-21T09:29:53.585Z,51.39
2019-03-21T09:32:19.885Z,52.10
2019-03-21T09:34:51.413Z,50.04
2019-03-21T09:37:26.273Z,50.98
2019-03-21T09:39:57.750Z,51.64
2019-03-21T09:42:29.625Z,48.93
2019-03-21T09:45:01.429Z,50.38
2019-03-21T09:47:35.597Z,49.82
2019-03-21T09:50:09.006Z,47.35
2019-03-21T09:52:43.362Z,48.39
2019-03-21T09:55:15.089Z,45.92
2019-03-21T09:57:52.026Z,47.08
2019-03-21T10:00:32.218Z,46.18
2019-03-21T10:03:03.598Z,45.19
2019-03-21T10:05:38.000Z,45.76
2019-03-21T10:08:09.362Z,46.00
2019-03-21T10:10:41.219Z,44.52
2019-03-21T10:13:20.390Z,47.75
2019-03-21T10:15:52.048Z,45.70
2019-03-21T10:18:30.628Z,45.46
2019-03-21T10:21:02.153Z,45.75
2019-03-21T10:23:33.531Z,43.62
2019-03-21T10:26:05.755Z,44.25
2019-03-21T10:28:37.181Z,43.59
2019-03-21T10:31:08.646Z,42.99
2019-03-21T10:33:40.380Z,43.74
2019-03-21T10:36:11.801Z,42.84
2019-03-21T10:38:43.195Z,42.68
2019-03-21T10:41:16.228Z,41.59
2019-03-21T10:43:51.658Z,42.32
2019-03-21T10:46:22.957Z,41.76
2019-03-21T10:48:54.810Z,38.90
2019-03-21T10:51:30.508Z,41.04
2019-03-21T10:54:01.957Z,40.73
2019-03-21T10:56:33.367Z,39.21
2019-03-21T10:59:04.661Z,38.43
2019-03-21T11:01:37.468Z,39.39
2019-03-21T11:04:12.327Z,38.69
2019-03-21T11:06:46.392Z,38.87
2019-03-21T11:09:17.757Z,38.64
2019-03-21T11:11:53.023Z,37.64
2019-03-21T11:14:24.385Z,38.03
2019-03-21T11:16:55.717Z,38.71
2019-03-21T11:19:27.548Z,37.66
2019-03-21T11:22:06.488Z,38.92
2019-03-21T11:24:47.373Z,37.76
2019-03-21T11:27:32.658Z,37.73
2019-03-21T11:30:15.403Z,35.26
2019-03-21T11:32:37.159Z,37.31
2019-03-21T11:35:08.492Z,37.86
2019-03-21T11:37:40.035Z,36.59
2019-03-21T11:40:11.556Z,38.57
2019-03-21T11:42:47.650Z,37.82
2019-03-21T11:45:20.578Z,37.13
2019-03-21T11:47:52.125Z,37.91
2019-03-21T11:50:29.930Z,37.76
2019-03-21T11:53:01.218Z,38.68
2019-03-21T11:55:35.120Z,38.74
2019-03-21T11:58:07.095Z,39.65
2019-03-21T12:00:43.730Z,39.41
2019-03-21T12:03:11.627Z,39.93
2019-03-21T12:05:45.393Z,39.14
2019-03-21T12:08:16.725Z,37.88
2019-03-21T12:10:51.047Z,37.40
2019-03-21T12:13:22.459Z,39.05
2019-03-21T12:15:54.028Z,40.53
2019-03-21T12:18:27.075Z,39.62
2019-03-21T12:20:58.449Z,39.85
2019-03-21T12:23:29.815Z,38.77
2019-03-21T12:26:04.327Z,41.16
2019-03-21T12:28:35.729Z,40.42
2019-03-21T12:31:12.337Z,40.88
2019-03-21T12:33:45.189Z,40.79
2019-03-21T12:36:16.553Z,41.09
2019-03-21T12:38:53.946Z,41.87
2019-03-21T12:41:25.846Z,40.80
2019-03-21T12:44:09.469Z,41.11
2019-03-21T12:46:42.239Z,42.79
2019-03-21T12:49:14.145Z,41.91
2019-03-21T12:51:45.986Z,42.48
2019-03-21T12:54:17.509Z,42.27
2019-03-21T12:56:49.349Z,43.25
2019-03-21T12:59:20.706Z,43.74
2019-03-21T13:01:52.298Z,45.11
2019-03-21T13:04:25.374Z,42.94
2019-03-21T13:06:59.598Z,43.19
2019-03-21T13:09:32.497Z,43.91
2019-03-21T13:12:04.813Z,43.68
2019-03-21T13:14:41.154Z,44.94
2019-03-21T13:17:16.373Z,43.71
2019-03-21T13:19:48.948Z,44.27
2019-03-21T13:22:23.723Z,44.69
2019-03-21T13:24:56.982Z,45.06
2019-03-21T13:27:31.395Z,45.02
2019-03-21T13:30:11.828Z,45.59
2019-03-21T13:33:22.625Z,46.13
2019-03-21T13:36:04.059Z,45.10
2019-03-21T13:39:28.512Z,45.72
2019-03-21T13:42:35.060Z,46.25
2019-03-21T13:45:07.131Z,47.43
2019-03-21T13:47:39.092Z,47.64
2019-03-21T13:50:12.083Z,47.35
2019-03-21T13:52:43.681Z,46.52
2019-03-21T13:55:15.519Z,47.59
2019-03-21T13:57:46.884Z,47.42
2019-03-21T14:00:20.415Z,47.62
2019-03-21T14:02:52.385Z,47.51
2019-03-21T14:05:25.513Z,47.88
2019-03-21T14:08:11.255Z,47.05
2019-03-21T14:10:49.462Z,47.58
2019-03-21T14:13:20.845Z,47.76
2019-03-21T14:15:52.521Z,47.47
2019-03-21T14:18:25.678Z,48.26
2019-03-21T14:20:57.353Z,48.01
2019-03-21T14:23:42.491Z,47.75
2019-03-21T14:26:03.763Z,48.05
2019-03-21T14:28:46.021Z,47.84
2019-03-21T14:31:17.397Z,47.55
2019-03-21T14:33:48.999Z,46.75
2019-03-21T14:36:20.378Z,47.44
2019-03-21T14:39:07.263Z,47.39
2019-03-21T14:41:41.570Z,47.89
2019-03-21T14:44:16.162Z,47.13
2019-03-21T14:46:48.276Z,47.32
2019-03-21T14:49:20.706Z,47.88
2019-03-21T14:51:52.316Z,47.31
2019-03-21T14:54:27.360Z,46.99
2019-03-21T14:57:00.974Z,47.10
2019-03-21T14:59:33.353Z,46.97
2019-03-21T15:02:04.737Z,47.39
2019-03-21T15:04:38.067Z,48.13
2019-03-21T15:07:11.692Z,47.66
2019-03-21T15:09:43.548Z,47.65
2019-03-21T15:12:15.063Z,47.24
2019-03-21T15:14:48.635Z,47.45
2019-03-21T15:17:22.092Z,47.26
2019-03-21T15:20:01.790Z,47.45
2019-03-21T15:22:38.662Z,48.27
2019-03-21T15:25:11.396Z,47.87
2019-03-21T15:27:43.220Z,48.27
2019-03-21T15:30:18.533Z,48.09
2019-03-21T15:32:51.589Z,48.63
2019-03-21T15:35:23.747Z,48.94
2019-03-21T15:37:55.507Z,48.09
2019-03-21T15:40:27.024Z,49.42
2019-03-21T15:43:02.742Z,49.18
2019-03-21T15:45:34.688Z,49.21
2019-03-21T15:48:06.268Z,49.03
2019-03-21T15:50:42.474Z,49.47
2019-03-21T15:53:35.761Z,50.31
2019-03-21T15:56:09.573Z,50.87
2019-03-21T15:58:53.886Z,51.17
2019-03-21T16:01:32.283Z,51.37
2019-03-21T16:04:07.591Z,51.21
2019-03-21T16:06:46.601Z,51.29
2019-03-21T16:09:18.178Z,51.32
2019-03-21T16:12:01.548Z,52.80
2019-03-21T16:14:45.305Z,52.51
2019-03-21T16:17:18.517Z,53.03
2019-03-21T16:19:57.963Z,52.25
2019-03-21T16:22:31.813Z,53.06
2019-03-21T16:25:03.578Z,54.83
2019-03-21T16:27:40.713Z,54.07
2019-03-21T16:30:18.146Z,54.78
2019-03-21T16:33:13.884Z,57.59
2019-03-21T16:35:52.890Z,58.82
2019-03-21T16:38:25.210Z,61.00
2019-03-21T16:41:00.025Z,61.96
2019-03-21T16:43:33.212Z,63.70
2019-03-21T16:46:05.234Z,64.58
2019-03-21T16:48:40.237Z,65.31
2019-03-21T16:51:13.594Z,65.63
2019-03-21T16:53:57.464Z,66.25
2019-03-21T16:56:34.860Z,66.74
2019-03-21T16:59:08.501Z,68.38
2019-03-21T17:01:40.279Z,68.24
2019-03-21T17:04:13.500Z,68.16
2019-03-21T17:06:44.832Z,69.12
2019-03-21T17:09:16.232Z,69.19
2019-03-21T17:12:01.328Z,70.24
2019-03-21T17:14:38.008Z,69.76
2019-03-21T17:17:12.767Z,72.24
2019-03-21T17:19:45.535Z,71.03
2019-03-21T17:22:17.172Z,71.07
2019-03-21T17:24:48.894Z,71.64
2019-03-21T17:27:20.602Z,73.65
2019-03-21T17:29:52.111Z,73.28
2019-03-21T17:32:25.437Z,74.17
2019-03-21T17:35:01.252Z,74.53
2019-03-21T17:37:34.196Z,74.24
2019-03-21T17:40:10.631Z,75.59
2019-03-21T17:42:53.460Z,74.28
2019-03-21T17:45:26.829Z,75.81
2019-03-21T17:48:02.022Z,74.82
2019-03-21T17:50:33.760Z,75.90
2019-03-21T17:53:05.169Z,75.76
2019-03-21T17:55:40.558Z,76.09
2019-03-21T17:58:29.741Z,78.17
2019-03-21T18:01:09.902Z,76.79
2019-03-21T18:04:09.634Z,77.95
2019-03-21T18:06:46.797Z,78.57
2019-03-21T18:09:22.086Z,79.10
2019-03-21T18:11:56.681Z,78.48
2019-03-21T18:14:35.943Z,79.07
2019-03-21T18:17:12.702Z,79.17
2019-03-21T18:19:50.708Z,79.41
2019-03-21T18:22:23.018Z,79.63
2019-03-21T18:24:54.649Z,80.79
2019-03-21T18:27:27.443Z,79.00
2019-03-21T18:30:02.416Z,81.97
2019-03-21T18:32:39.158Z,81.32
2019-03-21T18:35:10.577Z,81.35
2019-03-21T18:37:46.929Z,81.88
2019-03-21T18:40:21.130Z,81.95
2019-03-21T18:42:53.788Z,82.34
2019-03-21T18:45:27.598Z,81.43
2019-03-21T18:47:59.119Z,83.09
2019-03-21T18:50:34.090Z,82.94
2019-03-21T18:53:06.163Z,84.56
2019-03-21T18:55:37.828Z,84.20
2019-03-21T18:58:13.930Z,82.86
2019-03-21T19:00:45.608Z,83.11
2019-03-21T19:03:17.278Z,83.72
2019-03-21T19:05:55.442Z,83.90
2019-03-21T19:08:28.910Z,83.14
2019-03-21T19:11:01.354Z,83.81
2019-03-21T19:13:34.750Z,86.51
2019-03-21T19:16:11.955Z,85.90
2019-03-21T19:18:46.079Z,86.79
2019-03-21T19:21:19.341Z,86.68
2019-03-21T19:23:59.082Z,86.55
2019-03-21T19:26:30.853Z,86.83
2019-03-21T19:29:06.152Z,86.92
2019-03-21T19:31:40.501Z,86.40
2019-03-21T19:34:16.629Z,87.54
2019-03-21T19:36:48.186Z,86.14
2019-03-21T19:39:23.436Z,86.67
2019-03-21T19:41:55.332Z,87.06
2019-03-21T19:44:35.091Z,87.07
2019-03-21T19:47:09.653Z,87.21
2019-03-21T19:49:41.239Z,89.58
2019-03-21T19:52:14.602Z,90.11
2019-03-21T19:54:50.020Z,88.65
2019-03-21T19:57:22.689Z,88.88
2019-03-21T20:00:10.308Z,87.92
2019-03-21T20:02:49.266Z,89.27
2019-03-21T20:05:33.018Z,90.33
2019-03-21T20:08:04.480Z,89.75
2019-03-21T20:10:36.775Z,89.65
2019-03-21T20:13:08.771Z,89.56
2019-03-21T20:15:40.248Z,89.89
2019-03-21T20:18:14.819Z,88.95
2019-03-21T20:20:49.432Z,89.61
2019-03-21T20:23:21.077Z,90.44
2019-03-21T20:25:57.629Z,90.73
2019-03-21T20:28:26.197Z,91.08
2019-03-21T20:30:58.082Z,91.95
2019-03-21T20:33:30.083Z,91.68
2019-03-21T20:36:01.666Z,90.91
2019-03-21T20:38:33.160Z,91.50
2019-03-21T20:41:06.899Z,92.02
2019-03-21T20:43:38.570Z,91.93
2019-03-21T20:46:09.903Z,91.43
2019-03-21T20:48:39.181Z,91.32
2019-03-21T20:51:15.817Z,91.53
2019-03-21T20:53:53.439Z,91.92
2019-03-21T20:56:24.810Z,92.13
2019-03-21T20:58:59.512Z,91.30
2019-03-21T21:01:30.860Z,91.64
2019-03-21T21:04:04.309Z,91.30
2019-03-21T21:06:37.566Z,91.45
2019-03-21T21:09:12.595Z,92.18
2019-03-21T21:11:47.622Z,93.20
2019-03-21T21:14:18.971Z,93.14
2019-03-21T21:16:50.491Z,91.83
2019-03-21T21:19:21.889Z,91.88
2019-03-21T21:22:03.317Z,91.96
2019-03-21T21:24:41.684Z,92.19
2019-03-21T21:27:15.297Z,91.09
2019-03-21T21:29:46.638Z,92.82
2019-03-21T21:32:20.964Z,92.83
2019-03-21T21:34:54.578Z,93.23
2019-03-21T21:37:25.965Z,94.17
2019-03-21T21:39:57.820Z,93.18
2019-03-21T21:42:29.326Z,93.90
2019-03-21T21:45:16.265Z,93.21
2019-03-21T21:47:53.280Z,93.09
2019-03-21T21:50:28.083Z,92.94
2019-03-21T21:53:03.857Z,93.61
2019-03-21T21:55:44.880Z,93.27
2019-03-21T21:58:22.232Z,93.27
2019-03-21T22:00:55.753Z,93.33
2019-03-21T22:03:30.773Z,93.72
2019-03-21T22:06:02.147Z,93.87
2019-03-21T22:08:36.533Z,93.78
2019-03-21T22:11:08.451Z,94.56
2019-03-21T22:13:39.845Z,94.43
2019-03-21T22:16:11.675Z,96.46
2019-03-21T22:18:46.313Z,96.65
2019-03-21T22:21:17.754Z,96.93
2019-03-21T22:23:51.735Z,96.43
2019-03-21T22:26:29.589Z,95.44
2019-03-21T22:28:57.313Z,94.69
2019-03-21T22:31:28.999Z,95.04
2019-03-21T22:34:00.754Z,95.01
2019-03-21T22:36:49.257Z,95.53
2019-03-21T22:39:21.124Z,95.57
2019-03-21T22:41:52.477Z,96.12
2019-03-21T22:44:24.499Z,95.43
2019-03-21T22:46:58.469Z,94.54
2019-03-21T22:49:33.388Z,94.35
2019-03-21T22:52:08.057Z,94.96
2019-03-21T22:54:43.079Z,95.63
2019-03-21T22:57:18.141Z,95.54
2019-03-21T22:59:52.041Z,96.03
2019-03-21T23:02:24.538Z,95.34
2019-03-21T23:04:55.918Z,94.93
2019-03-21T23:07:36.180Z,94.96
2019-03-21T23:10:07.716Z,95.66
2019-03-21T23:12:39.290Z,95.70
2019-03-21T23:15:11.476Z,96.29
2019-03-21T23:17:43.948Z,95.34
2019-03-21T23:20:15.763Z,95.53
2019-03-21T23:22:48.426Z,96.58
2019-03-21T23:25:20.249Z,95.58
2019-03-21T23:27:51.643Z,95.70
2019-03-21T23:30:23.308Z,95.76
2019-03-21T23:32:59.712Z,96.65
2019-03-21T23:35:35.031Z,97.42
2019-03-21T23:38:06.432Z,97.28
2019-03-21T23:40:38.326Z,96.64
2019-03-21T23:43:11.723Z,96.91
2019-03-21T23:45:44.413Z,96.68
2019-03-21T23:48:15.916Z,96.40
2019-03-21T23:50:53.484Z,96.56
2019-03-21T23:53:29.116Z,97.49
2019-03-21T23:56:00.535Z,98.36
2019-03-21T23:58:32.229Z,99.92
